createdAt,value
2022-10-22T00:00:18.263Z,994.03
2022-10-22T00:01:18.234Z,994.04
2022-10-22T00:02:18.250Z,994.06
2022-10-22T00:03:18.213Z,994.11
2022-10-22T00:04:18.201Z,994.12
2022-10-22T00:05:18.193Z,994.14
2022-10-22T00:06:18.193Z,994.19
2022-10-22T00:07:18.172Z,994.19
2022-10-22T00:08:18.155Z,994.18
2022-10-22T00:09:18.183Z,994.24
2022-10-22T00:10:18.134Z,994.25
2022-10-22T00:11:18.123Z,994.19
2022-10-22T00:12:18.133Z,994.24
2022-10-22T00:13:18.104Z,994.15
2022-10-22T00:14:18.092Z,994.23
2022-10-22T00:15:18.085Z,994.19
2022-10-22T00:16:18.065Z,994.18
2022-10-22T00:17:18.053Z,994.24
2022-10-22T00:18:18.064Z,994.16
2022-10-22T00:19:18.034Z,994.21
2022-10-22T00:20:18.023Z,994.09
2022-10-22T00:21:18.013Z,994.16
2022-10-22T00:22:18.003Z,994.08
2022-10-22T00:23:17.994Z,994.10
2022-10-22T00:24:18.034Z,994.08
2022-10-22T00:25:17.972Z,994.02
2022-10-22T00:26:17.958Z,994.03
2022-10-22T00:27:17.944Z,993.92
2022-10-22T00:28:17.934Z,993.94
2022-10-22T00:29:17.924Z,993.93
2022-10-22T00:30:17.924Z,993.94
2022-10-22T00:31:17.896Z,993.92
2022-10-22T00:32:17.886Z,993.94
2022-10-22T00:33:17.875Z,993.93
2022-10-22T00:34:17.867Z,993.94
2022-10-22T00:35:17.856Z,993.90
2022-10-22T00:36:17.876Z,993.88
2022-10-22T00:37:17.835Z,993.88
2022-10-22T00:38:17.818Z,993.87
2022-10-22T00:39:17.813Z,993.89
2022-10-22T00:40:17.796Z,993.89
2022-10-22T00:41:17.808Z,993.92
2022-10-22T00:42:17.775Z,993.87
2022-10-22T00:43:17.765Z,993.84
2022-10-22T00:44:17.754Z,993.84
2022-10-22T00:45:17.744Z,993.79
2022-10-22T00:46:17.739Z,993.81
2022-10-22T00:47:17.736Z,993.80
2022-10-22T00:48:17.706Z,993.86
2022-10-22T00:49:17.696Z,993.80
2022-10-22T00:50:17.686Z,993.79
2022-10-22T00:51:17.676Z,993.79
2022-10-22T00:52:17.659Z,993.83
2022-10-22T00:53:17.674Z,993.78
2022-10-22T00:54:17.637Z,993.80
2022-10-22T00:55:17.626Z,993.76
2022-10-22T00:56:17.608Z,993.75
2022-10-22T00:57:17.606Z,993.68
2022-10-22T00:58:17.587Z,993.72
2022-10-22T00:59:17.605Z,993.75
2022-10-22T01:00:17.567Z,993.78
2022-10-22T01:01:17.602Z,993.81
2022-10-22T01:02:17.537Z,993.82
2022-10-22T01:03:17.537Z,993.86
2022-10-22T01:04:17.517Z,993.89
2022-10-22T01:05:17.539Z,993.93
2022-10-22T01:06:17.498Z,993.93
2022-10-22T01:07:17.487Z,993.89
2022-10-22T01:08:17.489Z,993.90
2022-10-22T01:09:17.467Z,993.87
2022-10-22T01:10:17.476Z,993.85
2022-10-22T01:11:17.447Z,993.92
2022-10-22T01:12:17.428Z,993.93
2022-10-22T01:13:17.427Z,993.95
2022-10-22T01:14:17.408Z,993.93
2022-10-22T01:15:17.402Z,993.91
2022-10-22T01:16:17.398Z,993.87
2022-10-22T01:17:17.402Z,993.95
2022-10-22T01:18:17.358Z,993.89
2022-10-22T01:19:17.358Z,993.91
2022-10-22T01:20:17.339Z,993.87
2022-10-22T01:21:17.349Z,993.81
2022-10-22T01:22:17.318Z,993.84
2022-10-22T01:23:17.313Z,993.77
2022-10-22T01:24:17.297Z,993.78
2022-10-22T01:25:17.289Z,993.77
2022-10-22T01:26:17.302Z,993.78
2022-10-22T01:27:17.308Z,993.84
2022-10-22T01:28:17.249Z,993.84
2022-10-22T01:29:17.248Z,993.79
2022-10-22T01:30:17.228Z,993.78
2022-10-22T01:31:17.252Z,993.80
2022-10-22T01:32:17.205Z,993.80
2022-10-22T01:33:17.209Z,993.85
2022-10-22T01:34:17.179Z,993.93
2022-10-22T01:35:17.170Z,993.90
2022-10-22T01:36:17.160Z,993.85
2022-10-22T01:37:17.150Z,993.86
2022-10-22T01:38:17.159Z,993.89
2022-10-22T01:39:17.127Z,993.85
2022-10-22T01:40:17.112Z,993.79
2022-10-22T01:41:17.109Z,993.84
2022-10-22T01:42:17.090Z,993.85
2022-10-22T01:43:17.080Z,993.97
2022-10-22T01:44:17.100Z,994.03
2022-10-22T01:45:17.062Z,994.08
2022-10-22T01:46:17.045Z,994.06
2022-10-22T01:47:17.030Z,994.04
2022-10-22T01:48:17.027Z,993.99
2022-10-22T01:49:17.010Z,994.03
2022-10-22T01:50:17.023Z,994.03
2022-10-22T01:51:16.989Z,994.02
2022-10-22T01:52:16.979Z,994.02
2022-10-22T01:53:16.962Z,993.93
2022-10-22T01:54:16.962Z,994.00
2022-10-22T01:55:16.941Z,993.99
2022-10-22T01:56:16.951Z,993.90
2022-10-22T01:57:16.920Z,993.97
2022-10-22T01:58:16.911Z,993.95
2022-10-22T01:59:16.891Z,993.98
2022-10-22T02:00:16.891Z,993.87
2022-10-22T02:01:16.893Z,993.82
2022-10-22T02:02:16.861Z,993.89
2022-10-22T02:03:19.858Z,993.99
2022-10-22T02:04:17.845Z,993.95
2022-10-22T02:05:16.831Z,993.97
2022-10-22T02:06:16.820Z,993.85
2022-10-22T02:07:16.822Z,993.83
2022-10-22T02:08:16.800Z,993.82
2022-10-22T02:09:16.845Z,993.80
2022-10-22T02:10:16.772Z,993.89
2022-10-22T02:11:16.753Z,993.85
2022-10-22T02:12:16.753Z,993.87
2022-10-22T02:13:16.751Z,993.87
2022-10-22T02:14:16.725Z,993.83
2022-10-22T02:15:16.712Z,993.89
2022-10-22T02:16:16.703Z,993.93
2022-10-22T02:17:16.692Z,993.95
2022-10-22T02:18:16.724Z,993.96
2022-10-22T02:19:16.672Z,993.98
2022-10-22T02:20:16.667Z,994.01
2022-10-22T02:21:16.653Z,994.04
2022-10-22T02:22:16.643Z,993.99
2022-10-22T02:23:16.622Z,994.01
2022-10-22T02:24:16.633Z,993.99
2022-10-22T02:25:16.602Z,994.03
2022-10-22T02:26:16.593Z,994.04
2022-10-22T02:27:16.588Z,994.03
2022-10-22T02:28:16.577Z,994.14
2022-10-22T02:29:16.555Z,994.07
2022-10-22T02:31:16.534Z,994.19
2022-10-22T02:32:16.538Z,994.07
2022-10-22T02:33:16.505Z,994.11
2022-10-22T02:34:16.497Z,994.16
2022-10-22T02:35:16.501Z,994.15
2022-10-22T02:36:16.495Z,994.07
2022-10-22T02:37:16.464Z,993.97
2022-10-22T02:38:16.454Z,993.93
2022-10-22T02:40:16.434Z,993.71
2022-10-22T02:41:16.414Z,993.81
2022-10-22T02:42:16.427Z,993.68
2022-10-22T02:43:16.396Z,993.75
2022-10-22T02:44:16.388Z,993.82
2022-10-22T02:45:16.374Z,994.07
2022-10-22T02:46:16.363Z,994.15
2022-10-22T02:47:16.364Z,994.17
2022-10-22T02:48:16.381Z,994.27
2022-10-22T02:49:16.325Z,994.31
2022-10-22T02:50:16.315Z,994.41
2022-10-22T02:51:16.305Z,994.41
2022-10-22T02:52:16.295Z,994.33
2022-10-22T02:53:16.307Z,994.38
2022-10-22T02:54:16.274Z,994.40
2022-10-22T02:55:16.255Z,994.36
2022-10-22T02:56:16.246Z,994.40
2022-10-22T02:57:16.272Z,994.34
2022-10-22T02:58:16.225Z,994.37
2022-10-22T02:59:16.227Z,994.42
2022-10-22T03:00:16.205Z,994.50
2022-10-22T03:01:16.366Z,994.49
2022-10-22T03:02:16.176Z,994.44
2022-10-22T03:03:16.166Z,994.40
2022-10-22T03:04:16.156Z,994.37
2022-10-22T03:05:16.165Z,994.39
2022-10-22T03:06:16.223Z,994.33
2022-10-22T03:07:16.124Z,994.24
2022-10-22T03:08:16.114Z,994.28
2022-10-22T03:09:16.907Z,994.27
2022-10-22T03:10:16.094Z,994.24
2022-10-22T03:11:16.106Z,994.27
2022-10-22T03:12:16.067Z,994.23
2022-10-22T03:13:16.053Z,994.10
2022-10-22T03:14:16.047Z,994.10
2022-10-22T03:15:16.042Z,994.14
2022-10-22T03:16:16.027Z,994.11
2022-10-22T03:17:16.027Z,994.16
2022-10-22T03:18:15.998Z,994.18
2022-10-22T03:19:15.987Z,994.22
2022-10-22T03:20:15.977Z,994.27
2022-10-22T03:21:15.967Z,994.38
2022-10-22T03:22:15.957Z,994.42
2022-10-22T03:23:15.957Z,994.34
2022-10-22T03:24:15.946Z,994.31
2022-10-22T03:25:15.918Z,994.26
2022-10-22T03:26:15.918Z,994.27
2022-10-22T03:27:15.897Z,994.27
2022-10-22T03:28:15.928Z,994.36
2022-10-22T03:29:15.888Z,994.39
2022-10-22T03:30:15.866Z,994.43
2022-10-22T03:31:15.848Z,994.40
2022-10-22T03:32:15.846Z,994.40
2022-10-22T03:33:15.827Z,994.41
2022-10-22T03:34:15.866Z,994.47
2022-10-22T03:35:15.806Z,994.47
2022-10-22T03:36:15.799Z,994.50
2022-10-22T03:37:15.786Z,994.48
2022-10-22T03:38:15.778Z,994.51
2022-10-22T03:39:15.767Z,994.45
2022-10-22T03:40:15.775Z,994.43
2022-10-22T03:41:15.740Z,994.45
2022-10-22T03:42:15.728Z,994.42
2022-10-22T03:43:15.713Z,994.43
2022-10-22T03:44:15.707Z,994.47
2022-10-22T03:45:15.698Z,994.49
2022-10-22T03:46:15.717Z,994.46
2022-10-22T03:47:15.669Z,994.47
2022-10-22T03:48:15.659Z,994.46
2022-10-22T03:49:15.658Z,994.49
2022-10-22T03:50:15.639Z,994.46
2022-10-22T03:51:15.629Z,994.46
2022-10-22T03:52:15.639Z,994.41
2022-10-22T03:53:15.599Z,994.43
2022-10-22T03:54:15.590Z,994.50
2022-10-22T03:55:15.580Z,994.48
2022-10-22T03:56:15.579Z,994.44
2022-10-22T03:57:15.557Z,994.54
2022-10-22T03:58:15.572Z,994.48
2022-10-22T03:59:15.547Z,994.64
2022-10-22T04:00:15.529Z,994.64
2022-10-22T04:01:15.594Z,994.71
2022-10-22T04:02:15.510Z,994.75
2022-10-22T04:03:15.492Z,994.84
2022-10-22T04:04:15.503Z,994.85
2022-10-22T04:05:15.470Z,994.93
2022-10-22T04:06:22.549Z,994.99
2022-10-22T04:07:18.073Z,994.95
2022-10-22T04:08:15.443Z,994.99
2022-10-22T04:09:15.488Z,994.96
2022-10-22T04:10:15.442Z,994.97
2022-10-22T04:11:15.402Z,994.98
2022-10-22T04:12:15.393Z,994.94
2022-10-22T04:13:15.382Z,994.88
2022-10-22T04:14:15.373Z,994.81
2022-10-22T04:15:15.353Z,994.79
2022-10-22T04:16:15.373Z,994.78
2022-10-22T04:17:15.332Z,994.78
2022-10-22T04:18:15.323Z,994.82
2022-10-22T04:19:15.314Z,994.78
2022-10-22T04:20:15.311Z,994.78
2022-10-22T04:21:15.291Z,994.76
2022-10-22T04:22:15.294Z,994.79
2022-10-22T04:23:15.273Z,994.78
2022-10-22T04:24:15.262Z,994.78
2022-10-22T04:25:15.243Z,994.85
2022-10-22T04:26:15.234Z,994.90
2022-10-22T04:27:15.246Z,995.00
2022-10-22T04:28:15.214Z,994.96
2022-10-22T04:29:16.346Z,995.00
2022-10-22T04:30:15.193Z,995.01
2022-10-22T04:31:15.173Z,994.95
2022-10-22T04:32:15.173Z,995.01
2022-10-22T04:33:15.176Z,994.98
2022-10-22T04:34:15.144Z,995.00
2022-10-22T04:35:15.322Z,994.96
2022-10-22T04:36:15.124Z,994.93
2022-10-22T04:37:15.104Z,994.90
2022-10-22T04:38:15.104Z,994.90
2022-10-22T04:39:15.104Z,994.91
2022-10-22T04:40:15.083Z,994.96
2022-10-22T04:41:15.067Z,994.98
2022-10-22T04:42:15.055Z,995.03
2022-10-22T04:43:15.050Z,995.06
2022-10-22T04:44:17.253Z,994.99
2022-10-22T04:45:15.015Z,994.97
2022-10-22T04:46:15.012Z,994.97
2022-10-22T04:47:14.994Z,994.95
2022-10-22T04:48:14.993Z,994.95
2022-10-22T04:49:14.973Z,994.95
2022-10-22T04:50:14.996Z,994.92
2022-10-22T04:51:14.945Z,994.92
2022-10-22T04:52:14.944Z,994.95
2022-10-22T04:53:14.928Z,994.96
2022-10-22T04:54:15.164Z,994.89
2022-10-22T04:55:14.906Z,994.89
2022-10-22T04:56:14.923Z,994.93
2022-10-22T04:57:14.885Z,994.98
2022-10-22T04:58:14.884Z,995.08
2022-10-22T04:59:14.856Z,995.05
2022-10-22T05:00:14.855Z,995.13
2022-10-22T05:01:14.907Z,995.07
2022-10-22T05:02:14.859Z,995.16
2022-10-22T05:03:14.826Z,995.10
2022-10-22T05:04:14.814Z,995.08
2022-10-22T05:05:14.795Z,995.08
2022-10-22T05:06:14.859Z,995.14
2022-10-22T05:07:14.787Z,995.10
2022-10-22T05:08:14.787Z,995.12
2022-10-22T05:09:14.909Z,995.12
2022-10-22T05:10:14.744Z,995.08
2022-10-22T05:11:14.726Z,995.05
2022-10-22T05:12:14.724Z,995.10
2022-10-22T05:13:14.709Z,995.08
2022-10-22T05:14:14.716Z,995.12
2022-10-22T05:15:14.686Z,995.11
2022-10-22T05:16:14.680Z,995.11
2022-10-22T05:17:14.662Z,995.07
2022-10-22T05:18:16.804Z,995.05
2022-10-22T05:19:15.657Z,994.96
2022-10-22T05:20:14.628Z,994.91
2022-10-22T05:21:14.636Z,994.92
2022-10-22T05:22:14.608Z,994.96
2022-10-22T05:23:14.597Z,994.94
2022-10-22T05:24:14.588Z,994.98
2022-10-22T05:25:14.596Z,994.98
2022-10-22T05:26:14.574Z,995.09
2022-10-22T05:27:14.616Z,995.08
2022-10-22T05:28:14.555Z,995.01
2022-10-22T05:29:14.552Z,995.01
2022-10-22T05:30:14.542Z,995.01
2022-10-22T05:31:14.534Z,994.97
2022-10-22T05:32:14.497Z,995.08
2022-10-22T05:33:14.478Z,995.11
2022-10-22T05:34:14.481Z,995.15
2022-10-22T05:35:14.457Z,995.16
2022-10-22T05:36:14.478Z,995.18
2022-10-22T05:37:14.436Z,995.18
2022-10-22T05:38:14.427Z,995.24
2022-10-22T05:39:14.417Z,995.20
2022-10-22T05:40:26.510Z,995.20
2022-10-22T05:41:15.421Z,995.28
2022-10-22T05:42:14.379Z,995.34
2022-10-22T05:43:14.374Z,995.33
2022-10-22T05:44:14.358Z,995.35
2022-10-22T05:45:14.348Z,995.40
2022-10-22T05:46:16.614Z,995.36
2022-10-22T05:47:14.346Z,995.39
2022-10-22T05:48:14.319Z,995.38
2022-10-22T05:49:14.298Z,995.30
2022-10-22T05:50:14.298Z,995.39
2022-10-22T05:51:14.277Z,995.41
2022-10-22T05:52:14.298Z,995.37
2022-10-22T05:53:14.261Z,995.37
2022-10-22T05:54:14.249Z,995.33
2022-10-22T05:55:14.235Z,995.34
2022-10-22T05:56:14.227Z,995.39
2022-10-22T05:57:14.210Z,995.39
2022-10-22T05:58:14.227Z,995.42
2022-10-22T05:59:14.198Z,995.46
2022-10-22T06:00:16.426Z,995.51
2022-10-22T06:01:14.170Z,995.52
2022-10-22T06:02:14.198Z,995.53
2022-10-22T06:03:14.150Z,995.53
2022-10-22T06:04:14.163Z,995.58
2022-10-22T06:05:14.131Z,995.59
2022-10-22T06:06:14.109Z,995.56
2022-10-22T06:07:14.108Z,995.60
2022-10-22T06:08:18.206Z,995.57
2022-10-22T06:09:15.138Z,995.54
2022-10-22T06:10:14.070Z,995.56
2022-10-22T06:11:14.085Z,995.58
2022-10-22T06:12:14.048Z,995.55
2022-10-22T06:13:14.040Z,995.63
2022-10-22T06:14:14.023Z,995.61
2022-10-22T06:15:14.033Z,995.62
2022-10-22T06:16:14.001Z,995.71
2022-10-22T06:17:13.990Z,995.70
2022-10-22T06:18:13.972Z,995.70
2022-10-22T06:19:13.970Z,995.69
2022-10-22T06:20:13.979Z,995.73
2022-10-22T06:21:13.941Z,995.79
2022-10-22T06:22:13.929Z,995.75
2022-10-22T06:23:13.920Z,995.78
2022-10-22T06:24:13.911Z,995.75
2022-10-22T06:25:13.900Z,995.84
2022-10-22T06:26:13.913Z,995.80
2022-10-22T06:27:13.882Z,995.82
2022-10-22T06:28:13.908Z,995.85
2022-10-22T06:29:13.859Z,995.86
2022-10-22T06:30:13.844Z,995.90
2022-10-22T06:31:13.834Z,995.90
2022-10-22T06:32:13.842Z,995.92
2022-10-22T06:33:13.811Z,995.97
2022-10-22T06:34:13.800Z,995.94
2022-10-22T06:35:13.790Z,996.02
2022-10-22T06:36:13.773Z,996.00
2022-10-22T06:37:13.785Z,996.01
2022-10-22T06:38:13.752Z,996.06
2022-10-22T06:39:13.742Z,996.02
2022-10-22T06:40:13.733Z,996.12
2022-10-22T06:41:13.721Z,996.11
2022-10-22T06:42:13.730Z,996.17
2022-10-22T06:43:13.702Z,996.23
2022-10-22T06:44:13.682Z,996.21
2022-10-22T06:45:13.682Z,996.25
2022-10-22T06:46:16.080Z,996.19
2022-10-22T06:47:14.681Z,996.25
2022-10-22T06:48:13.641Z,996.29
2022-10-22T06:49:13.701Z,996.28
2022-10-22T06:50:13.613Z,996.33
2022-10-22T06:51:13.613Z,996.25
2022-10-22T06:52:13.602Z,996.25
2022-10-22T06:53:13.650Z,996.24
2022-10-22T06:54:13.575Z,996.25
2022-10-22T06:55:13.562Z,996.26
2022-10-22T06:56:13.555Z,996.34
2022-10-22T06:57:13.542Z,996.28
2022-10-22T06:58:13.533Z,996.28
2022-10-22T06:59:13.592Z,996.29
2022-10-22T07:00:13.508Z,996.28
2022-10-22T07:01:13.541Z,996.26
2022-10-22T07:02:13.483Z,996.26
2022-10-22T07:03:13.473Z,996.30
2022-10-22T07:04:13.462Z,996.31
2022-10-22T07:05:13.464Z,996.35
2022-10-22T07:06:13.441Z,996.35
2022-10-22T07:07:13.435Z,996.34
2022-10-22T07:08:13.413Z,996.32
2022-10-22T07:09:13.542Z,996.39
2022-10-22T07:10:13.425Z,996.37
2022-10-22T07:11:13.382Z,996.41
2022-10-22T07:12:13.364Z,996.41
2022-10-22T07:13:13.364Z,996.38
2022-10-22T07:14:13.353Z,996.46
2022-10-22T07:15:13.343Z,996.46
2022-10-22T07:16:13.345Z,996.48
2022-10-22T07:17:13.324Z,996.47
2022-10-22T07:18:13.305Z,996.50
2022-10-22T07:19:13.294Z,996.53
2022-10-22T07:20:13.276Z,996.48
2022-10-22T07:21:13.275Z,996.61
2022-10-22T07:22:13.278Z,996.62
2022-10-22T07:23:13.250Z,996.59
2022-10-22T07:24:13.235Z,996.63
2022-10-22T07:25:13.225Z,996.65
2022-10-22T07:26:13.214Z,996.66
2022-10-22T07:27:13.203Z,996.69
2022-10-22T07:28:13.212Z,996.68
2022-10-22T07:29:13.176Z,996.69
2022-10-22T07:30:13.167Z,996.67
2022-10-22T07:31:13.156Z,996.71
2022-10-22T07:32:13.145Z,996.73
2022-10-22T07:33:13.137Z,996.72
2022-10-22T07:34:13.205Z,996.77
2022-10-22T07:35:13.118Z,996.83
2022-10-22T07:36:13.097Z,996.85
2022-10-22T07:37:13.096Z,996.89
2022-10-22T07:38:13.077Z,996.91
2022-10-22T07:39:13.070Z,996.89
2022-10-22T07:40:13.076Z,996.94
2022-10-22T07:41:13.048Z,996.86
2022-10-22T07:42:13.032Z,996.93
2022-10-22T07:43:13.027Z,996.97
2022-10-22T07:44:13.016Z,996.94
2022-10-22T07:45:12.999Z,996.99
2022-10-22T07:46:13.010Z,996.99
2022-10-22T07:47:12.979Z,997.02
2022-10-22T07:48:12.967Z,997.01
2022-10-22T07:49:12.959Z,997.00
2022-10-22T07:50:12.940Z,997.08
2022-10-22T07:51:12.938Z,997.00
2022-10-22T07:52:12.940Z,997.06
2022-10-22T07:53:12.912Z,997.08
2022-10-22T07:54:12.899Z,997.13
2022-10-22T07:55:12.889Z,997.09
2022-10-22T07:56:12.879Z,997.14
2022-10-22T07:57:12.869Z,997.11
2022-10-22T07:58:12.870Z,997.14
2022-10-22T07:59:12.850Z,997.16
2022-10-22T08:00:12.834Z,997.18
2022-10-22T08:01:12.837Z,997.16
2022-10-22T08:02:12.810Z,997.24
2022-10-22T08:03:12.831Z,997.18
2022-10-22T08:04:12.791Z,997.23
2022-10-22T08:05:12.781Z,997.27
2022-10-22T08:06:12.762Z,997.27
2022-10-22T08:07:12.751Z,997.29
2022-10-22T08:08:12.740Z,997.30
2022-10-22T08:09:12.772Z,997.30
2022-10-22T08:10:12.726Z,997.26
2022-10-22T08:11:12.712Z,997.22
2022-10-22T08:12:12.693Z,997.25
2022-10-22T08:13:12.691Z,997.33
2022-10-22T08:14:12.673Z,997.34
2022-10-22T08:15:12.684Z,997.35
2022-10-22T08:16:12.665Z,997.34
2022-10-22T08:17:12.644Z,997.42
2022-10-22T08:18:12.632Z,997.38
2022-10-22T08:19:12.624Z,997.45
2022-10-22T08:20:12.625Z,997.43
2022-10-22T08:21:12.603Z,997.44
2022-10-22T08:22:12.584Z,997.48
2022-10-22T08:23:12.576Z,997.42
2022-10-22T08:24:12.568Z,997.47
2022-10-22T08:25:12.553Z,997.50
2022-10-22T08:26:12.567Z,997.51
2022-10-22T08:27:12.535Z,997.50
2022-10-22T08:28:12.515Z,997.41
2022-10-22T08:29:12.506Z,997.41
2022-10-22T08:30:12.495Z,997.43
2022-10-22T08:31:12.488Z,997.43
2022-10-22T08:32:12.496Z,997.48
2022-10-22T08:33:12.466Z,997.50
2022-10-22T08:34:12.455Z,997.51
2022-10-22T08:35:14.173Z,997.46
2022-10-22T08:36:12.435Z,997.44
2022-10-22T08:37:12.426Z,997.49
2022-10-22T08:38:12.431Z,997.47
2022-10-22T08:39:12.397Z,997.54
2022-10-22T08:40:12.389Z,997.59
2022-10-22T08:41:12.382Z,997.58
2022-10-22T08:42:12.367Z,997.61
2022-10-22T08:43:12.358Z,997.59
2022-10-22T08:44:12.359Z,997.56
2022-10-22T08:45:12.338Z,997.58
2022-10-22T08:46:12.321Z,997.51
2022-10-22T08:47:12.317Z,997.56
2022-10-22T08:48:12.299Z,997.56
2022-10-22T08:49:12.321Z,997.54
2022-10-22T08:50:12.280Z,997.57
2022-10-22T08:51:12.270Z,997.53
2022-10-22T08:52:12.258Z,997.52
2022-10-22T08:53:12.252Z,997.55
2022-10-22T08:54:12.231Z,997.54
2022-10-22T08:55:12.278Z,997.59
2022-10-22T08:56:12.211Z,997.61
2022-10-22T08:57:12.293Z,997.57
2022-10-22T08:58:12.192Z,997.62
2022-10-22T08:59:12.181Z,997.61
2022-10-22T09:00:12.180Z,997.61
2022-10-22T09:01:12.181Z,997.63
2022-10-22T09:02:12.173Z,997.71
2022-10-22T09:03:12.152Z,997.67
2022-10-22T09:04:12.124Z,997.76
2022-10-22T09:05:12.380Z,997.80
2022-10-22T09:06:12.104Z,997.66
2022-10-22T09:07:12.135Z,997.74
2022-10-22T09:08:12.084Z,997.81
2022-10-22T09:09:12.158Z,997.78
2022-10-22T09:10:12.063Z,997.80
2022-10-22T09:11:12.053Z,997.81
2022-10-22T09:12:14.407Z,997.84
2022-10-22T09:13:12.045Z,997.77
2022-10-22T09:14:12.033Z,997.84
2022-10-22T09:15:12.006Z,997.84
2022-10-22T09:16:11.995Z,997.90
2022-10-22T09:17:11.984Z,997.91
2022-10-22T09:18:11.995Z,997.87
2022-10-22T09:19:11.964Z,997.82
2022-10-22T09:20:11.946Z,997.96
2022-10-22T09:21:11.946Z,997.96
2022-10-22T09:22:11.927Z,998.06
2022-10-22T09:23:11.917Z,997.97
2022-10-22T09:24:11.917Z,997.84
2022-10-22T09:25:11.896Z,997.87
2022-10-22T09:26:11.888Z,997.86
2022-10-22T09:27:11.878Z,997.88
2022-10-22T09:28:11.865Z,997.89
2022-10-22T09:29:11.878Z,997.90
2022-10-22T09:30:11.840Z,997.91
2022-10-22T09:31:11.841Z,997.92
2022-10-22T09:32:11.818Z,997.99
2022-10-22T09:33:11.818Z,997.91
2022-10-22T09:34:11.803Z,997.94
2022-10-22T09:35:11.839Z,997.89
2022-10-22T09:36:11.779Z,997.93
2022-10-22T09:37:11.769Z,997.98
2022-10-22T09:38:11.750Z,998.02
2022-10-22T09:39:11.767Z,997.94
2022-10-22T09:40:11.750Z,997.96
2022-10-22T09:41:11.719Z,997.97
2022-10-22T09:42:11.709Z,997.97
2022-10-22T09:43:11.700Z,997.93
2022-10-22T09:44:11.681Z,997.96
2022-10-22T09:45:11.678Z,997.98
2022-10-22T09:46:11.683Z,998.00
2022-10-22T09:47:11.651Z,998.08
2022-10-22T09:48:11.641Z,998.12
2022-10-22T09:49:11.631Z,998.12
2022-10-22T09:50:11.626Z,998.00
2022-10-22T09:51:11.632Z,998.08
2022-10-22T09:52:11.592Z,998.01
2022-10-22T09:53:11.593Z,998.08
2022-10-22T09:54:11.573Z,998.10
2022-10-22T09:55:11.562Z,998.08
2022-10-22T09:56:11.551Z,998.16
2022-10-22T09:57:11.592Z,998.14
2022-10-22T09:58:11.522Z,998.07
2022-10-22T09:59:11.522Z,998.12
2022-10-22T10:00:11.513Z,998.12
2022-10-22T10:01:11.493Z,998.12
2022-10-22T10:02:19.808Z,998.12
2022-10-22T10:03:12.554Z,998.08
2022-10-22T10:04:11.488Z,998.17
2022-10-22T10:05:11.452Z,998.16
2022-10-22T10:06:11.442Z,998.13
2022-10-22T10:07:18.475Z,998.20
2022-10-22T10:08:11.414Z,998.16
2022-10-22T10:09:11.568Z,998.20
2022-10-22T10:10:11.394Z,998.21
2022-10-22T10:11:11.384Z,998.24
2022-10-22T10:12:11.368Z,998.24
2022-10-22T10:13:11.361Z,998.18
2022-10-22T10:14:11.346Z,998.23
2022-10-22T10:15:11.346Z,998.20
2022-10-22T10:16:11.325Z,998.23
2022-10-22T10:17:11.307Z,998.23
2022-10-22T10:18:11.296Z,998.23
2022-10-22T10:19:11.407Z,998.27
2022-10-22T10:20:11.276Z,998.28
2022-10-22T10:21:11.369Z,998.26
2022-10-22T10:22:11.265Z,998.23
2022-10-22T10:23:11.247Z,998.30
2022-10-22T10:24:11.296Z,998.21
2022-10-22T10:25:11.218Z,998.20
2022-10-22T10:26:11.207Z,998.21
2022-10-22T10:27:11.217Z,998.22
2022-10-22T10:28:11.195Z,998.25
2022-10-22T10:29:11.177Z,998.30
2022-10-22T10:30:11.172Z,998.26
2022-10-22T10:31:11.158Z,998.31
2022-10-22T10:32:11.170Z,998.36
2022-10-22T10:33:11.128Z,998.34
2022-10-22T10:34:11.122Z,998.26
2022-10-22T10:35:11.149Z,998.24
2022-10-22T10:36:11.100Z,998.25
2022-10-22T10:37:11.098Z,998.23
2022-10-22T10:38:11.102Z,998.25
2022-10-22T10:39:11.104Z,998.19
2022-10-22T10:40:11.058Z,998.19
2022-10-22T10:41:11.040Z,998.14
2022-10-22T10:42:11.030Z,998.24
2022-10-22T10:43:11.019Z,998.27
2022-10-22T10:44:11.028Z,998.26
2022-10-22T10:45:10.991Z,998.23
2022-10-22T10:46:11.054Z,998.20
2022-10-22T10:47:10.970Z,998.21
2022-10-22T10:48:10.960Z,998.20
2022-10-22T10:49:10.950Z,998.16
2022-10-22T10:50:10.980Z,998.12
2022-10-22T10:51:10.922Z,998.19
2022-10-22T10:52:10.921Z,998.20
2022-10-22T10:53:10.910Z,998.20
2022-10-22T10:54:10.901Z,998.18
2022-10-22T10:55:10.883Z,998.14
2022-10-22T10:56:10.901Z,998.16
2022-10-22T10:57:10.862Z,998.13
2022-10-22T10:58:10.852Z,998.12
2022-10-22T10:59:10.842Z,998.17
2022-10-22T11:00:10.832Z,998.13
2022-10-22T11:01:10.813Z,998.21
2022-10-22T11:02:10.831Z,998.16
2022-10-22T11:03:10.794Z,998.17
2022-10-22T11:04:10.783Z,998.09
2022-10-22T11:05:10.781Z,998.18
2022-10-22T11:06:10.763Z,998.09
2022-10-22T11:07:11.286Z,998.07
2022-10-22T11:08:11.756Z,998.05
2022-10-22T11:09:10.738Z,998.09
2022-10-22T11:10:10.783Z,998.19
2022-10-22T11:11:10.731Z,998.17
2022-10-22T11:12:10.697Z,998.11
2022-10-22T11:13:10.704Z,998.15
2022-10-22T11:14:10.676Z,998.18
2022-10-22T11:15:10.663Z,998.21
2022-10-22T11:16:10.658Z,998.19
2022-10-22T11:17:10.635Z,998.17
2022-10-22T11:18:10.635Z,998.18
2022-10-22T11:19:11.304Z,998.16
2022-10-22T11:20:10.676Z,998.13
2022-10-22T11:21:10.597Z,998.14
2022-10-22T11:22:10.597Z,998.06
2022-10-22T11:23:19.636Z,998.15
2022-10-22T11:24:11.585Z,998.11
2022-10-22T11:25:10.554Z,998.07
2022-10-22T11:26:10.546Z,998.09
2022-10-22T11:27:10.536Z,998.12
2022-10-22T11:28:11.241Z,998.03
2022-10-22T11:29:10.507Z,998.09
2022-10-22T11:30:10.543Z,998.02
2022-10-22T11:31:10.507Z,998.06
2022-10-22T11:32:10.475Z,998.05
2022-10-22T11:33:10.458Z,998.10
2022-10-22T11:34:32.147Z,998.10
2022-10-22T11:35:11.457Z,998.05
2022-10-22T11:36:10.427Z,998.07
2022-10-22T11:37:10.417Z,998.04
2022-10-22T11:38:10.408Z,998.10
2022-10-22T11:39:10.390Z,998.11
2022-10-22T11:40:10.388Z,998.10
2022-10-22T11:41:10.389Z,998.08
2022-10-22T11:42:10.368Z,998.09
2022-10-22T11:43:10.349Z,998.08
2022-10-22T11:44:10.341Z,998.05
2022-10-22T11:45:10.334Z,998.10
2022-10-22T11:46:10.339Z,998.08
2022-10-22T11:47:10.309Z,998.09
2022-10-22T11:48:10.310Z,998.08
2022-10-22T11:49:10.300Z,998.09
2022-10-22T11:50:10.278Z,997.97
2022-10-22T11:51:10.260Z,997.99
2022-10-22T11:52:10.278Z,997.97
2022-10-22T11:54:10.231Z,998.00
2022-10-22T11:55:10.219Z,997.97
2022-10-22T11:56:10.211Z,998.00
2022-10-22T11:57:10.202Z,998.02
2022-10-22T11:58:10.203Z,998.01
2022-10-22T11:59:10.181Z,998.03
2022-10-22T12:00:10.172Z,998.07
2022-10-22T12:01:10.163Z,998.02
2022-10-22T12:02:10.142Z,998.03
2022-10-22T12:03:10.181Z,998.09
2022-10-22T12:04:10.173Z,998.09
2022-10-22T12:05:10.111Z,998.05
2022-10-22T12:06:10.101Z,998.05
2022-10-22T12:07:10.095Z,998.00
2022-10-22T12:08:14.785Z,998.02
2022-10-22T12:09:11.146Z,998.03
2022-10-22T12:10:10.506Z,998.00
2022-10-22T12:11:10.044Z,997.98
2022-10-22T12:12:10.042Z,997.97
2022-10-22T12:13:10.013Z,997.98
2022-10-22T12:14:10.013Z,997.99
2022-10-22T12:15:10.014Z,998.00
2022-10-22T12:16:12.807Z,997.93
2022-10-22T12:17:09.975Z,997.95
2022-10-22T12:18:10.000Z,997.93
2022-10-22T12:19:09.954Z,997.96
2022-10-22T12:20:09.966Z,997.91
2022-10-22T12:21:09.934Z,997.91
2022-10-22T12:22:09.925Z,997.94
2022-10-22T12:23:09.905Z,997.91
2022-10-22T12:24:09.904Z,997.90
2022-10-22T12:25:09.885Z,997.86
2022-10-22T12:26:09.895Z,997.88
2022-10-22T12:27:10.617Z,997.84
2022-10-22T12:28:09.868Z,997.83
2022-10-22T12:29:09.836Z,997.83
2022-10-22T12:30:09.849Z,997.81
2022-10-22T12:31:09.836Z,997.82